Alisal, California
Current Conditions -  °F | °C
As of 5:53 PM on Thursday 20 Nov 2014 (Local Time) from KSNS Reporting Station
Scattered Clouds Scattered Clouds  
Wind Chill: 60°   Ceiling: Unl
Heat Index: 60°   Visibility: 10mi
Dew Point: 53°   Wind: 3mph
Humidity: 78%   Direction: 330°NNW
Pressure: 30.01"   Gusts: NA
Location:  36.6786°N, 121.613°W
Report Text: KSNS 210153Z 33003KT 10SM SCT060 16/12 A3001 RMK AO2 SLP172 T01560117
Loading
Personal Weather Stations






























Interactive Weather Map New forecast layout! Learn more

10-Day Weather Forecast

Advertisements
Track Severe Weather on mobile